Time;durP1;ratioP1;P1;durP2;ratioP2;P2;SDS_P1;SDS_P2;PMS_P1;PMS_P2;Temp;Humidity;BMP_temperature;BMP_pressure;BME280_temperature;BME280_humidity;BME280_pressure;Samples;Min_cycle;Max_cycle;Signal;HPM_P1;HPM_P2
2024/03/24 00:01:34;;;;;;;213.83;57.37;;;;;;;;;;4992688;28;20505;-46
2024/03/24 00:04:00;;;;;;;216.07;59.80;;;;;;;;;;4992291;28;20718;-45
2024/03/24 00:06:26;;;;;;;219.40;63.57;;;;;;;;;;4992070;28;20420;-45
2024/03/24 00:08:53;;;;;;;215.57;59.23;;;;;;;;;;4991838;28;20499;-46
2024/03/24 00:11:19;;;;;;;215.65;59.80;;;;;;;;;;4992634;28;20458;-47
2024/03/24 00:13:44;;;;;;;216.37;61.70;;;;;;;;;;4984145;28;20197;-47
2024/03/24 00:16:10;;;;;;;217.23;62.47;;;;;;;;;;4992014;28;20455;-45
2024/03/24 00:18:36;;;;;;;217.67;62.70;;;;;;;;;;4992058;28;20420;-45
2024/03/24 00:21:02;;;;;;;216.47;62.00;;;;;;;;;;4992233;28;20412;-46
2024/03/24 00:23:28;;;;;;;217.50;61.95;;;;;;;;;;4991580;28;20506;-45
2024/03/24 00:25:54;;;;;;;214.33;59.23;;;;;;;;;;4980068;28;20712;-44
2024/03/24 00:28:20;;;;;;;216.67;60.67;;;;;;;;;;4980462;28;20972;-47
2024/03/24 00:30:46;;;;;;;216.17;60.47;;;;;;;;;;4976475;28;20951;-44
2024/03/24 00:33:12;;;;;;;212.27;57.80;;;;;;;;;;4984328;28;20823;-44
2024/03/24 00:35:38;;;;;;;215.17;60.70;;;;;;;;;;4983794;28;20829;-46
2024/03/24 00:38:04;;;;;;;218.10;62.67;;;;;;;;;;4991762;28;20435;-47
2024/03/24 00:40:30;;;;;;;218.60;60.97;;;;;;;;;;4983796;28;20455;-44
2024/03/24 00:42:56;;;;;;;215.85;61.53;;;;;;;;;;4978925;28;20197;-44
2024/03/24 00:45:22;;;;;;;217.73;60.97;;;;;;;;;;4972773;28;20716;-44
2024/03/24 00:47:51;;;;;;;215.65;61.30;;;;;;;;;;4983666;28;20169;-44
2024/03/24 00:50:17;;;;;;;216.52;61.08;;;;;;;;;;4983702;28;20165;-45
2024/03/24 00:52:43;;;;;;;218.32;60.88;;;;;;;;;;4975481;28;20707;-44
2024/03/24 00:55:09;;;;;;;215.63;59.17;;;;;;;;;;4983718;28;20173;-44
2024/03/24 00:57:35;;;;;;;217.35;59.60;;;;;;;;;;4981630;28;20169;-43
2024/03/24 01:00:02;;;;;;;216.77;62.73;;;;;;;;;;4979056;28;20513;-44
2024/03/24 01:02:28;;;;;;;216.00;58.70;;;;;;;;;;4973145;28;20414;-46
2024/03/24 01:04:54;;;;;;;215.55;59.17;;;;;;;;;;4982543;28;20188;-44
2024/03/24 01:07:20;;;;;;;216.37;60.20;;;;;;;;;;4983682;28;20185;-44
2024/03/24 01:09:45;;;;;;;213.83;58.87;;;;;;;;;;4972044;28;20491;-45
2024/03/24 01:12:11;;;;;;;214.77;60.23;;;;;;;;;;4980314;28;20409;-43
2024/03/24 01:14:37;;;;;;;215.73;60.20;;;;;;;;;;4980253;28;20453;-43
2024/03/24 01:17:03;;;;;;;217.65;61.40;;;;;;;;;;4971998;28;20408;-43
2024/03/24 01:19:29;;;;;;;214.75;58.55;;;;;;;;;;4981162;28;20257;-45
2024/03/24 01:21:55;;;;;;;218.50;62.70;;;;;;;;;;4978574;28;20254;-44
2024/03/24 01:24:21;;;;;;;214.57;58.47;;;;;;;;;;4987808;28;20455;-45
2024/03/24 01:26:47;;;;;;;215.97;59.90;;;;;;;;;;4971990;28;20408;-44
2024/03/24 01:29:13;;;;;;;215.63;60.10;;;;;;;;;;4980102;28;20452;-44
2024/03/24 01:31:39;;;;;;;217.80;61.25;;;;;;;;;;4990354;28;20496;-44
2024/03/24 01:34:05;;;;;;;216.70;60.33;;;;;;;;;;4991223;28;20276;-45
2024/03/24 01:36:31;;;;;;;216.43;61.47;;;;;;;;;;4983163;28;20420;-44
2024/03/24 01:38:57;;;;;;;216.13;60.23;;;;;;;;;;4986596;28;20448;-44
2024/03/24 01:41:23;;;;;;;215.85;59.33;;;;;;;;;;4980576;28;20795;-44
2024/03/24 01:43:49;;;;;;;216.95;60.55;;;;;;;;;;4981282;28;20284;-45
2024/03/24 01:46:16;;;;;;;215.23;59.87;;;;;;;;;;4975655;28;20697;-44
2024/03/24 01:48:42;;;;;;;219.95;63.97;;;;;;;;;;4987511;28;20523;-45
2024/03/24 01:51:09;;;;;;;215.37;59.60;;;;;;;;;;4971701;28;20181;-44
2024/03/24 01:53:37;;;;;;;215.32;59.45;;;;;;;;;;4981768;28;20429;-44
2024/03/24 01:56:03;;;;;;;220.13;65.03;;;;;;;;;;4985308;28;20273;-45
2024/03/24 01:58:31;;;;;;;217.13;61.42;;;;;;;;;;4981272;28;20171;-47
2024/03/24 02:00:58;;;;;;;215.38;58.80;;;;;;;;;;4982962;28;20184;-45
2024/03/24 02:03:23;;;;;;;219.85;63.58;;;;;;;;;;4973744;28;20573;-46
2024/03/24 02:05:49;;;;;;;215.57;59.60;;;;;;;;;;4982124;28;20187;-44
2024/03/24 02:08:16;;;;;;;213.80;58.57;;;;;;;;;;4990775;28;20477;-44
2024/03/24 02:10:42;;;;;;;214.60;59.20;;;;;;;;;;4980102;28;20463;-44
2024/03/24 02:13:08;;;;;;;220.95;66.20;;;;;;;;;;4979414;28;20740;-44
2024/03/24 02:15:34;;;;;;;218.82;63.15;;;;;;;;;;4989249;28;20200;-43
2024/03/24 02:18:00;;;;;;;218.17;60.90;;;;;;;;;;4981064;28;20205;-45
2024/03/24 02:20:26;;;;;;;214.23;59.67;;;;;;;;;;4983620;28;20426;-44
2024/03/24 02:22:52;;;;;;;218.27;62.83;;;;;;;;;;4994494;28;20483;-47
2024/03/24 02:25:18;;;;;;;216.38;60.10;;;;;;;;;;4994281;28;21109;-44
2024/03/24 02:27:44;;;;;;;214.35;57.95;;;;;;;;;;4986175;28;20239;-43
2024/03/24 02:30:10;;;;;;;216.07;60.30;;;;;;;;;;4987973;28;20216;-44
2024/03/24 02:32:37;;;;;;;219.45;61.13;;;;;;;;;;4984967;28;20424;-44
2024/03/24 02:35:04;;;;;;;216.00;59.83;;;;;;;;;;4994425;28;20197;-44
2024/03/24 02:37:30;;;;;;;217.48;61.22;;;;;;;;;;4986782;28;20256;-45
2024/03/24 02:39:55;;;;;;;212.67;57.57;;;;;;;;;;4986493;28;20204;-44
2024/03/24 02:42:21;;;;;;;215.10;59.77;;;;;;;;;;4984267;28;20404;-45
2024/03/24 02:44:48;;;;;;;214.82;59.78;;;;;;;;;;4986235;28;20420;-45
2024/03/24 02:47:14;;;;;;;216.65;60.70;;;;;;;;;;4985807;28;20173;-44
2024/03/24 02:49:39;;;;;;;214.03;59.60;;;;;;;;;;4986226;28;20711;-44
2024/03/24 02:52:06;;;;;;;212.43;57.87;;;;;;;;;;4986198;28;20761;-44
2024/03/24 02:54:32;;;;;;;212.50;57.70;;;;;;;;;;4976204;28;20429;-43
2024/03/24 02:56:58;;;;;;;211.97;56.97;;;;;;;;;;4974142;28;20560;-44
2024/03/24 02:59:24;;;;;;;215.38;61.10;;;;;;;;;;4982278;28;20911;-44
2024/03/24 03:01:50;;;;;;;213.10;58.40;;;;;;;;;;4978196;28;20189;-43
2024/03/24 03:04:16;;;;;;;216.23;60.33;;;;;;;;;;4985450;28;20523;-43
2024/03/24 03:06:42;;;;;;;213.07;57.43;;;;;;;;;;4993037;28;20417;-43
2024/03/24 03:09:08;;;;;;;215.18;60.47;;;;;;;;;;4985362;28;20460;-44
2024/03/24 03:11:35;;;;;;;216.13;61.63;;;;;;;;;;4985332;28;20169;-43
2024/03/24 03:14:01;;;;;;;213.88;59.65;;;;;;;;;;4985116;28;20189;-43
2024/03/24 03:16:27;;;;;;;218.65;64.53;;;;;;;;;;4985149;28;20169;-43
2024/03/24 03:18:53;;;;;;;214.37;60.20;;;;;;;;;;4993539;28;20707;-44
2024/03/24 03:21:19;;;;;;;211.53;56.93;;;;;;;;;;4993876;28;20930;-44
2024/03/24 03:23:44;;;;;;;212.57;58.67;;;;;;;;;;4973778;28;21030;-44
2024/03/24 03:26:10;;;;;;;215.83;61.60;;;;;;;;;;4981551;28;20948;-43
2024/03/24 03:28:37;;;;;;;215.48;61.63;;;;;;;;;;4980911;28;20858;-43
2024/03/24 03:31:03;;;;;;;211.68;58.05;;;;;;;;;;4987142;28;20235;-43
2024/03/24 03:33:29;;;;;;;217.20;63.45;;;;;;;;;;4984928;28;20197;-43
2024/03/24 03:35:55;;;;;;;215.67;62.23;;;;;;;;;;4993706;28;20645;-43
2024/03/24 03:38:20;;;;;;;212.43;59.57;;;;;;;;;;4985199;28;20960;-44
2024/03/24 03:40:47;;;;;;;214.17;60.53;;;;;;;;;;4989598;28;20893;-45
2024/03/24 03:43:16;;;;;;;214.57;60.70;;;;;;;;;;4980467;28;20522;-44
2024/03/24 03:45:42;;;;;;;214.43;61.78;;;;;;;;;;4992465;28;20637;-44
2024/03/24 03:48:08;;;;;;;212.83;58.53;;;;;;;;;;4992767;28;20211;-43
2024/03/24 03:50:37;;;;;;;212.60;59.47;;;;;;;;;;4982565;28;20495;-44
2024/03/24 03:53:03;;;;;;;213.48;59.97;;;;;;;;;;4986788;28;20432;-44
2024/03/24 03:55:29;;;;;;;214.10;60.38;;;;;;;;;;4992343;28;20296;-44
2024/03/24 03:57:55;;;;;;;213.43;61.33;;;;;;;;;;4987540;28;20256;-44
2024/03/24 04:00:21;;;;;;;212.20;60.03;;;;;;;;;;4989050;28;20173;-44
2024/03/24 04:02:51;;;;;;;211.98;59.25;;;;;;;;;;4976627;28;20897;-44
2024/03/24 04:05:18;;;;;;;211.43;58.50;;;;;;;;;;4992280;28;20652;-44
2024/03/24 04:07:44;;;;;;;212.07;58.72;;;;;;;;;;4984432;28;20183;-44
2024/03/24 04:10:10;;;;;;;211.02;59.00;;;;;;;;;;4992291;28;20173;-45
2024/03/24 04:12:37;;;;;;;210.57;57.83;;;;;;;;;;4991915;28;20192;-44
2024/03/24 04:15:03;;;;;;;213.48;60.40;;;;;;;;;;4986340;28;20821;-44
2024/03/24 04:17:30;;;;;;;210.15;56.70;;;;;;;;;;4990038;28;20184;-44
2024/03/24 04:19:56;;;;;;;212.57;60.00;;;;;;;;;;4992272;28;20201;-43
2024/03/24 04:22:22;;;;;;;214.93;61.00;;;;;;;;;;4991909;28;20257;-44
2024/03/24 04:24:49;;;;;;;212.15;59.20;;;;;;;;;;4972848;28;20603;-44
2024/03/24 04:27:18;;;;;;;215.00;62.17;;;;;;;;;;4987955;28;20247;-43
2024/03/24 04:29:44;;;;;;;212.45;57.63;;;;;;;;;;4991981;28;20658;-44
2024/03/24 04:32:10;;;;;;;213.63;59.67;;;;;;;;;;4984013;28;20660;-45
2024/03/24 04:34:36;;;;;;;211.63;57.90;;;;;;;;;;4991976;28;20474;-44
2024/03/24 04:37:02;;;;;;;215.00;60.00;;;;;;;;;;4991747;28;20227;-44
2024/03/24 04:39:29;;;;;;;217.52;66.25;;;;;;;;;;4991900;28;20227;-44
2024/03/24 04:41:55;;;;;;;213.10;59.30;;;;;;;;;;4979373;28;20645;-44
2024/03/24 04:44:21;;;;;;;215.53;61.27;;;;;;;;;;4988450;28;20204;-45
2024/03/24 04:46:47;;;;;;;215.53;61.07;;;;;;;;;;4975960;28;20779;-44
2024/03/24 04:49:13;;;;;;;213.77;61.27;;;;;;;;;;4984806;28;20834;-44
2024/03/24 04:51:39;;;;;;;216.73;62.42;;;;;;;;;;4990822;28;20922;-45
2024/03/24 04:54:05;;;;;;;216.45;63.30;;;;;;;;;;4983407;28;20193;-44
2024/03/24 04:56:31;;;;;;;215.85;62.53;;;;;;;;;;4983723;28;20179;-44
2024/03/24 04:58:58;;;;;;;215.00;62.85;;;;;;;;;;4986615;28;20185;-44
2024/03/24 05:01:24;;;;;;;216.73;64.70;;;;;;;;;;4972635;28;20224;-45
2024/03/24 05:03:50;;;;;;;217.17;64.43;;;;;;;;;;4979543;28;20633;-45
2024/03/24 05:06:16;;;;;;;211.70;58.97;;;;;;;;;;4987600;28;20443;-44
2024/03/24 05:08:42;;;;;;;215.45;62.78;;;;;;;;;;4980491;28;20452;-44
2024/03/24 05:11:11;;;;;;;214.13;61.45;;;;;;;;;;4978744;28;20169;-43
2024/03/24 05:13:38;;;;;;;215.43;62.97;;;;;;;;;;4989141;28;20196;-44
2024/03/24 05:16:07;;;;;;;214.15;60.88;;;;;;;;;;4979786;28;20181;-44
2024/03/24 05:18:33;;;;;;;215.57;63.47;;;;;;;;;;4990178;28;20581;-44
2024/03/24 05:20:59;;;;;;;213.20;60.97;;;;;;;;;;4983373;28;20187;-44
2024/03/24 05:23:25;;;;;;;213.93;60.47;;;;;;;;;;4990981;28;20212;-44
2024/03/24 05:25:52;;;;;;;214.35;60.92;;;;;;;;;;4983162;28;20408;-44
2024/03/24 05:28:18;;;;;;;217.13;64.68;;;;;;;;;;4975751;28;20739;-44
2024/03/24 05:30:44;;;;;;;216.20;63.13;;;;;;;;;;4983293;28;20196;-44
2024/03/24 05:33:10;;;;;;;215.27;62.93;;;;;;;;;;4984711;28;20198;-43
2024/03/24 05:35:36;;;;;;;215.75;61.90;;;;;;;;;;4979612;28;20412;-44
2024/03/24 05:38:02;;;;;;;214.85;60.92;;;;;;;;;;4985148;28;20684;-44
2024/03/24 05:40:28;;;;;;;216.07;64.82;;;;;;;;;;4983100;28;20244;-44
2024/03/24 05:42:54;;;;;;;213.85;60.90;;;;;;;;;;4989188;28;20255;-47
2024/03/24 05:45:20;;;;;;;221.27;66.50;;;;;;;;;;4983050;28;20185;-44
2024/03/24 05:47:46;;;;;;;212.98;60.00;;;;;;;;;;4975278;28;20475;-44
2024/03/24 05:50:12;;;;;;;213.83;59.70;;;;;;;;;;4991304;28;20649;-45
2024/03/24 05:52:38;;;;;;;213.77;59.80;;;;;;;;;;4983704;28;20912;-44
2024/03/24 05:55:04;;;;;;;224.00;67.87;;;;;;;;;;4989110;28;20927;-44
2024/03/24 05:57:31;;;;;;;214.57;60.95;;;;;;;;;;4985294;28;20500;-45
2024/03/24 05:59:57;;;;;;;219.18;65.88;;;;;;;;;;4988323;28;20708;-44
2024/03/24 06:02:23;;;;;;;212.87;59.27;;;;;;;;;;4978067;28;20178;-45
2024/03/24 06:04:49;;;;;;;215.27;62.10;;;;;;;;;;4978944;28;20416;-46
2024/03/24 06:07:15;;;;;;;213.40;60.83;;;;;;;;;;4986837;28;20433;-45
2024/03/24 06:09:41;;;;;;;214.10;61.70;;;;;;;;;;4991215;28;20752;-44
2024/03/24 06:12:07;;;;;;;215.00;62.10;;;;;;;;;;4983299;28;20921;-44
2024/03/24 06:14:33;;;;;;;213.25;59.30;;;;;;;;;;4992642;28;20585;-44
2024/03/24 06:16:59;;;;;;;215.17;60.57;;;;;;;;;;4981055;28;20170;-44
2024/03/24 06:19:25;;;;;;;216.07;62.33;;;;;;;;;;4983415;28;20978;-44
2024/03/24 06:21:53;;;;;;;214.77;59.80;;;;;;;;;;4986057;28;20958;-44
2024/03/24 06:24:19;;;;;;;215.07;60.75;;;;;;;;;;4986738;28;20458;-45
2024/03/24 06:26:45;;;;;;;216.03;62.90;;;;;;;;;;4993914;28;20503;-46
2024/03/24 06:29:11;;;;;;;217.75;62.58;;;;;;;;;;4994060;28;20470;-45
2024/03/24 06:31:37;;;;;;;213.15;57.83;;;;;;;;;;4986679;28;20182;-46
2024/03/24 06:34:03;;;;;;;215.82;60.75;;;;;;;;;;4977868;28;20197;-46
2024/03/24 06:36:29;;;;;;;213.70;59.88;;;;;;;;;;4985852;28;20173;-45
2024/03/24 06:38:55;;;;;;;211.20;56.53;;;;;;;;;;4988117;28;20436;-45
2024/03/24 06:41:21;;;;;;;209.57;56.57;;;;;;;;;;4977669;28;20260;-45
2024/03/24 06:43:47;;;;;;;217.18;63.67;;;;;;;;;;4981600;28;20511;-46
2024/03/24 06:46:13;;;;;;;211.97;58.53;;;;;;;;;;4978276;28;20265;-45
2024/03/24 06:48:39;;;;;;;215.13;61.50;;;;;;;;;;4988466;28;20457;-45
2024/03/24 06:51:05;;;;;;;211.43;59.00;;;;;;;;;;4978120;28;20413;-45
2024/03/24 06:53:31;;;;;;;213.93;59.80;;;;;;;;;;4980074;28;20429;-45
2024/03/24 06:55:57;;;;;;;214.02;60.80;;;;;;;;;;4993650;28;20767;-45
2024/03/24 06:58:23;;;;;;;213.00;59.83;;;;;;;;;;4983849;28;20174;-45
2024/03/24 07:00:52;;;;;;;217.37;63.17;;;;;;;;;;4977739;28;20416;-44
2024/03/24 07:03:19;;;;;;;212.50;57.47;;;;;;;;;;4976820;28;20437;-44
2024/03/24 07:05:45;;;;;;;211.18;57.53;;;;;;;;;;4993146;28;20637;-45
2024/03/24 07:08:11;;;;;;;214.03;61.20;;;;;;;;;;4993389;28;20212;-46
2024/03/24 07:10:37;;;;;;;215.43;60.57;;;;;;;;;;4981639;28;20412;-45
2024/03/24 07:13:03;;;;;;;212.00;58.77;;;;;;;;;;4973542;28;20452;-45
2024/03/24 07:15:29;;;;;;;212.30;58.88;;;;;;;;;;4977047;28;20437;-45
2024/03/24 07:17:55;;;;;;;214.55;59.95;;;;;;;;;;4979645;28;20178;-45
2024/03/24 07:20:21;;;;;;;212.37;62.30;;;;;;;;;;4981902;28;20215;-45
2024/03/24 07:22:47;;;;;;;212.68;61.03;;;;;;;;;;4980212;28;20431;-46
2024/03/24 07:25:14;;;;;;;219.63;68.97;;;;;;;;;;4981985;28;20176;-45
2024/03/24 07:27:40;;;;;;;218.82;69.80;;;;;;;;;;4977163;28;20177;-45
2024/03/24 07:30:07;;;;;;;211.38;60.15;;;;;;;;;;4977269;28;20209;-47
2024/03/24 07:32:36;;;;;;;215.55;64.30;;;;;;;;;;4978634;28;20172;-45
2024/03/24 07:35:02;;;;;;;213.85;62.55;;;;;;;;;;4971997;28;20257;-45
2024/03/24 07:37:28;;;;;;;214.60;62.78;;;;;;;;;;4978554;28;20399;-46
2024/03/24 07:39:54;;;;;;;214.35;63.33;;;;;;;;;;4978578;28;20272;-46
2024/03/24 07:42:21;;;;;;;213.77;64.33;;;;;;;;;;4989580;28;20268;-45
2024/03/24 07:44:47;;;;;;;212.43;61.72;;;;;;;;;;4976869;28;20499;-45
2024/03/24 07:47:13;;;;;;;215.37;64.97;;;;;;;;;;4975189;28;20257;-45
2024/03/24 07:49:39;;;;;;;212.88;61.85;;;;;;;;;;4976393;28;20461;-45
2024/03/24 07:52:05;;;;;;;212.77;60.55;;;;;;;;;;4976403;28;20184;-45
2024/03/24 07:54:31;;;;;;;216.18;65.07;;;;;;;;;;4978644;28;20197;-45
2024/03/24 07:56:57;;;;;;;213.77;63.97;;;;;;;;;;4976049;28;20745;-44
2024/03/24 07:59:23;;;;;;;215.27;65.30;;;;;;;;;;4981377;28;20428;-44
2024/03/24 08:01:49;;;;;;;216.10;65.45;;;;;;;;;;4978813;28;20424;-44
2024/03/24 08:04:15;;;;;;;215.73;66.87;;;;;;;;;;4977364;28;20592;-44
2024/03/24 08:06:45;;;;;;;216.52;67.55;;;;;;;;;;4981117;28;20432;-45
2024/03/24 08:09:11;;;;;;;211.90;60.63;;;;;;;;;;4977048;28;20276;-45
2024/03/24 08:11:37;;;;;;;214.27;65.43;;;;;;;;;;4976898;28;20539;-44
2024/03/24 08:14:03;;;;;;;215.00;67.35;;;;;;;;;;4976553;28;20186;-44
2024/03/24 08:16:29;;;;;;;215.93;69.50;;;;;;;;;;4977543;28;20199;-45
2024/03/24 08:18:55;;;;;;;211.90;65.73;;;;;;;;;;4978854;28;20436;-45
2024/03/24 08:21:21;;;;;;;214.07;66.97;;;;;;;;;;4980266;28;20941;-44
2024/03/24 08:23:47;;;;;;;214.80;68.27;;;;;;;;;;4976433;28;20443;-44
2024/03/24 08:26:13;;;;;;;215.47;69.47;;;;;;;;;;4974702;28;20409;-45
2024/03/24 08:28:39;;;;;;;214.63;65.63;;;;;;;;;;4976834;28;20519;-45
2024/03/24 08:31:05;;;;;;;211.17;62.80;;;;;;;;;;4974647;28;20421;-46
2024/03/24 08:33:31;;;;;;;212.20;64.63;;;;;;;;;;4976898;28;20469;-45
2024/03/24 08:35:57;;;;;;;215.50;68.00;;;;;;;;;;4976079;28;20210;-45
2024/03/24 08:38:23;;;;;;;214.33;66.03;;;;;;;;;;4976623;28;20716;-46
2024/03/24 08:40:49;;;;;;;215.37;65.20;;;;;;;;;;4977571;28;20445;-45
2024/03/24 08:43:15;;;;;;;214.33;64.80;;;;;;;;;;4974375;28;20864;-45
2024/03/24 08:45:41;;;;;;;215.73;66.30;;;;;;;;;;4981180;28;20860;-47
2024/03/24 08:48:07;;;;;;;216.52;66.40;;;;;;;;;;4980761;28;20417;-46
2024/03/24 08:50:33;;;;;;;217.40;64.38;;;;;;;;;;4978194;28;20181;-46
2024/03/24 08:52:59;;;;;;;220.03;66.10;;;;;;;;;;4974797;28;20197;-45
2024/03/24 08:55:27;;;;;;;222.40;67.57;;;;;;;;;;4975691;28;20466;-45
2024/03/24 08:57:53;;;;;;;223.30;66.07;;;;;;;;;;4975165;28;20477;-46
2024/03/24 09:00:19;;;;;;;228.90;73.77;;;;;;;;;;4975741;28;21037;-45
2024/03/24 09:02:45;;;;;;;227.77;75.35;;;;;;;;;;4982365;28;20965;-44
2024/03/24 09:05:11;;;;;;;234.83;77.43;;;;;;;;;;4990978;28;20178;-45
2024/03/24 09:07:37;;;;;;;226.83;72.87;;;;;;;;;;4989421;28;20503;-47
2024/03/24 09:10:03;;;;;;;228.67;73.67;;;;;;;;;;4991794;28;20471;-45
2024/03/24 09:12:29;;;;;;;229.50;75.90;;;;;;;;;;4991719;28;20434;-45
2024/03/24 09:14:55;;;;;;;226.07;72.30;;;;;;;;;;4991482;28;20647;-45
2024/03/24 09:17:21;;;;;;;224.23;68.17;;;;;;;;;;4991274;28;20920;-46
2024/03/24 09:19:47;;;;;;;224.33;67.17;;;;;;;;;;4990800;28;21024;-47
2024/03/24 09:22:13;;;;;;;230.27;74.93;;;;;;;;;;4991539;28;20969;-45
2024/03/24 09:24:39;;;;;;;228.48;74.63;;;;;;;;;;4991137;28;20222;-46
2024/03/24 09:27:06;;;;;;;230.70;77.40;;;;;;;;;;4993545;28;20239;-45
2024/03/24 09:29:32;;;;;;;232.02;75.47;;;;;;;;;;4995569;28;20230;-45
2024/03/24 09:31:58;;;;;;;235.25;78.57;;;;;;;;;;4987558;28;20195;-45
2024/03/24 09:34:25;;;;;;;234.88;80.70;;;;;;;;;;4995220;28;20200;-46
2024/03/24 09:36:51;;;;;;;233.10;76.60;;;;;;;;;;4994985;28;20676;-47
2024/03/24 09:39:17;;;;;;;235.13;80.60;;;;;;;;;;4995173;28;20211;-47
2024/03/24 09:41:44;;;;;;;228.35;71.18;;;;;;;;;;4995217;28;20177;-46
2024/03/24 09:44:11;;;;;;;235.55;80.13;;;;;;;;;;4992942;28;20235;-46
2024/03/24 09:46:41;;;;;;;233.60;74.13;;;;;;;;;;4994646;28;20592;-47
2024/03/24 09:49:11;;;;;;;232.30;75.30;;;;;;;;;;4989207;28;20196;-45
2024/03/24 09:51:38;;;;;;;230.82;74.70;;;;;;;;;;4986901;28;20176;-46
2024/03/24 09:54:04;;;;;;;230.98;74.88;;;;;;;;;;4994979;28;20226;-46
2024/03/24 09:56:31;;;;;;;236.52;81.30;;;;;;;;;;4990101;28;20327;-48
2024/03/24 09:58:59;;;;;;;232.75;76.72;;;;;;;;;;4994800;28;20179;-47
2024/03/24 10:01:25;;;;;;;230.88;73.75;;;;;;;;;;4994451;28;20194;-47
2024/03/24 10:03:52;;;;;;;233.75;77.80;;;;;;;;;;4994600;28;20201;-47
2024/03/24 10:06:18;;;;;;;233.13;77.63;;;;;;;;;;4994293;28;20180;-47
2024/03/24 10:08:44;;;;;;;234.10;79.70;;;;;;;;;;4994388;28;20200;-47
2024/03/24 10:11:30;;;;;;;233.37;78.33;;;;;;;;;;4994414;28;20173;-47
2024/03/24 10:13:56;;;;;;;235.02;79.80;;;;;;;;;;4994166;28;20467;-47
2024/03/24 10:16:23;;;;;;;236.68;81.40;;;;;;;;;;4994171;28;20174;-47
2024/03/24 10:18:49;;;;;;;238.70;82.43;;;;;;;;;;4994805;28;20185;-47
2024/03/24 10:21:15;;;;;;;235.15;78.47;;;;;;;;;;4994255;28;20240;-47
2024/03/24 10:23:41;;;;;;;236.05;81.35;;;;;;;;;;4994163;28;20623;-48
2024/03/24 10:26:07;;;;;;;236.50;79.15;;;;;;;;;;4994147;28;20235;-48
2024/03/24 10:28:34;;;;;;;238.48;82.60;;;;;;;;;;4984548;28;20719;-46
2024/03/24 10:31:06;;;;;;;235.80;77.07;;;;;;;;;;4982255;28;20664;-47
2024/03/24 10:33:35;;;;;;;244.70;89.10;;;;;;;;;;4980295;28;21138;-46
2024/03/24 10:36:03;;;;;;;234.15;77.22;;;;;;;;;;4976419;28;20174;-47
2024/03/24 10:38:29;;;;;;;232.90;76.40;;;;;;;;;;4979860;28;20663;-46
2024/03/24 10:40:57;;;;;;;232.27;74.67;;;;;;;;;;4979510;28;20252;-46
2024/03/24 10:43:23;;;;;;;234.75;77.68;;;;;;;;;;4975582;28;21030;-47
2024/03/24 10:45:50;;;;;;;233.30;76.40;;;;;;;;;;4972001;28;20303;-48
2024/03/24 10:48:21;;;;;;;234.85;80.35;;;;;;;;;;4987980;28;20536;-47
2024/03/24 10:50:52;;;;;;;228.50;71.03;;;;;;;;;;4990374;28;20180;-48
2024/03/24 10:53:20;;;;;;;230.43;74.53;;;;;;;;;;4973998;28;20193;-47
2024/03/24 10:55:46;;;;;;;231.07;75.00;;;;;;;;;;4985634;28;20172;-46
2024/03/24 10:58:14;;;;;;;228.57;73.28;;;;;;;;;;4989091;28;20243;-46
2024/03/24 11:00:41;;;;;;;229.98;73.68;;;;;;;;;;4991042;28;20320;-46
2024/03/24 11:03:08;;;;;;;226.85;70.25;;;;;;;;;;4988475;28;20222;-46
2024/03/24 11:05:37;;;;;;;231.68;75.50;;;;;;;;;;4991946;28;20175;-47
2024/03/24 11:08:05;;;;;;;230.48;75.68;;;;;;;;;;4988774;28;20176;-45
2024/03/24 11:10:31;;;;;;;223.57;67.55;;;;;;;;;;4976003;28;20654;-47
2024/03/24 11:12:57;;;;;;;228.13;73.47;;;;;;;;;;4981928;28;20200;-45
2024/03/24 11:15:23;;;;;;;225.38;69.90;;;;;;;;;;4989706;28;20186;-45
2024/03/24 11:17:49;;;;;;;221.98;65.90;;;;;;;;;;4985862;28;20245;-47
2024/03/24 11:20:23;;;;;;;221.13;65.17;;;;;;;;;;4991660;28;20274;-47
2024/03/24 11:22:53;;;;;;;226.82;71.75;;;;;;;;;;4989618;28;20487;-46
2024/03/24 11:25:19;;;;;;;224.00;70.30;;;;;;;;;;4988261;28;20222;-46
2024/03/24 11:27:46;;;;;;;221.88;66.63;;;;;;;;;;4991265;28;20242;-47
2024/03/24 11:30:12;;;;;;;223.77;69.45;;;;;;;;;;4988634;28;20230;-46
2024/03/24 11:32:51;;;;;;;221.73;65.35;;;;;;;;;;4976705;28;20179;-47
2024/03/24 11:35:29;;;;;;;224.65;66.78;;;;;;;;;;4987493;28;20201;-46
2024/03/24 11:37:57;;;;;;;221.85;67.50;;;;;;;;;;4966918;28;20222;-46
2024/03/24 11:40:26;;;;;;;224.52;68.38;;;;;;;;;;4989395;28;20202;-45
2024/03/24 11:42:53;;;;;;;218.68;60.55;;;;;;;;;;4991888;28;20229;-46
2024/03/24 11:45:25;;;;;;;217.43;59.97;;;;;;;;;;4992632;28;20173;-46
2024/03/24 11:47:51;;;;;;;219.10;62.67;;;;;;;;;;4991162;28;20553;-46
2024/03/24 11:50:18;;;;;;;218.50;63.45;;;;;;;;;;4988957;28;20785;-45
2024/03/24 11:52:44;;;;;;;217.20;60.42;;;;;;;;;;4981310;28;20218;-46
2024/03/24 11:55:13;;;;;;;220.68;62.85;;;;;;;;;;4972851;28;20175;-46
2024/03/24 11:57:39;;;;;;;216.63;60.75;;;;;;;;;;4980845;28;20651;-45
2024/03/24 12:00:07;;;;;;;217.30;63.35;;;;;;;;;;4979726;28;20590;-45
2024/03/24 12:02:33;;;;;;;217.48;61.70;;;;;;;;;;4991798;28;20227;-45
2024/03/24 12:04:59;;;;;;;216.90;63.70;;;;;;;;;;4992246;28;20184;-45
2024/03/24 12:07:25;;;;;;;216.07;63.07;;;;;;;;;;4991645;28;20203;-46
2024/03/24 12:09:54;;;;;;;216.50;62.92;;;;;;;;;;4985182;28;20552;-46
2024/03/24 12:12:23;;;;;;;219.60;65.47;;;;;;;;;;4984262;28;20658;-46
2024/03/24 12:14:51;;;;;;;223.10;66.40;;;;;;;;;;4971114;28;20282;-46
2024/03/24 12:17:21;;;;;;;223.40;65.63;;;;;;;;;;4975586;28;20180;-46
2024/03/24 12:19:47;;;;;;;223.80;66.90;;;;;;;;;;4974540;28;20172;-46
2024/03/24 12:22:13;;;;;;;222.17;66.30;;;;;;;;;;4981101;28;20239;-47
2024/03/24 12:24:39;;;;;;;226.32;68.40;;;;;;;;;;4976818;28;20999;-46
2024/03/24 12:27:05;;;;;;;231.27;73.10;;;;;;;;;;4973275;28;20193;-46
2024/03/24 12:29:31;;;;;;;236.73;77.77;;;;;;;;;;4976147;28;20218;-46
2024/03/24 12:31:58;;;;;;;239.23;79.67;;;;;;;;;;4977421;28;20924;-46
2024/03/24 12:34:26;;;;;;;244.67;86.20;;;;;;;;;;4983043;28;20514;-46
2024/03/24 12:36:52;;;;;;;243.37;85.50;;;;;;;;;;4991195;28;20412;-46
2024/03/24 12:39:18;;;;;;;242.20;85.50;;;;;;;;;;4991946;28;20412;-47
2024/03/24 12:41:44;;;;;;;244.47;89.77;;;;;;;;;;4991654;28;20962;-46
2024/03/24 12:44:12;;;;;;;239.97;83.70;;;;;;;;;;4989639;28;20938;-45
2024/03/24 12:46:39;;;;;;;242.53;85.70;;;;;;;;;;4991287;28;20422;-46
2024/03/24 12:49:15;;;;;;;243.57;90.05;;;;;;;;;;4991600;28;20469;-46
2024/03/24 12:51:41;;;;;;;240.93;86.18;;;;;;;;;;4981467;28;20179;-45
2024/03/24 12:54:13;;;;;;;239.60;83.35;;;;;;;;;;4976820;28;20203;-46
2024/03/24 12:56:47;;;;;;;244.57;92.57;;;;;;;;;;4984253;28;20178;-46
2024/03/24 12:59:14;;;;;;;235.97;81.33;;;;;;;;;;4991588;28;20493;-46
2024/03/24 13:01:43;;;;;;;237.97;82.30;;;;;;;;;;4991471;28;20406;-46
2024/03/24 13:04:11;;;;;;;237.17;82.40;;;;;;;;;;4986026;28;21094;-46
2024/03/24 13:06:38;;;;;;;240.18;85.75;;;;;;;;;;4991013;28;20466;-46
2024/03/24 13:09:07;;;;;;;240.17;86.37;;;;;;;;;;4991551;28;20679;-46
2024/03/24 13:11:33;;;;;;;235.87;78.13;;;;;;;;;;4984639;28;20402;-46
2024/03/24 13:14:01;;;;;;;236.53;79.63;;;;;;;;;;4991459;28;20854;-47
2024/03/24 13:16:29;;;;;;;232.30;75.47;;;;;;;;;;4991267;28;20415;-46
2024/03/24 13:19:17;;;;;;;232.10;75.00;;;;;;;;;;4991461;28;20181;-46
2024/03/24 13:21:46;;;;;;;233.68;79.20;;;;;;;;;;4991217;28;20573;-46
2024/03/24 13:24:15;;;;;;;231.90;78.18;;;;;;;;;;4991122;28;20212;-46
2024/03/24 13:26:44;;;;;;;228.52;73.60;;;;;;;;;;4990981;28;20224;-45
2024/03/24 13:29:10;;;;;;;232.20;80.07;;;;;;;;;;4991412;28;20431;-46
2024/03/24 13:31:36;;;;;;;229.97;76.70;;;;;;;;;;4989418;28;20257;-45
2024/03/24 13:34:02;;;;;;;226.77;69.70;;;;;;;;;;4990923;28;20440;-46
2024/03/24 13:36:38;;;;;;;226.85;70.35;;;;;;;;;;4990975;28;20447;-46
2024/03/24 13:39:09;;;;;;;230.73;77.78;;;;;;;;;;4991395;28;20264;-46
2024/03/24 13:41:42;;;;;;;230.40;75.43;;;;;;;;;;4991278;28;20276;-46
2024/03/24 13:44:26;;;;;;;226.70;69.07;;;;;;;;;;4989294;28;20232;-46
2024/03/24 13:47:11;;;;;;;229.82;76.38;;;;;;;;;;4990912;28;20637;-46
2024/03/24 13:49:37;;;;;;;231.65;74.18;;;;;;;;;;4991021;28;20573;-45
2024/03/24 13:52:05;;;;;;;229.75;73.85;;;;;;;;;;4991318;28;20173;-46
2024/03/24 13:54:33;;;;;;;233.63;80.68;;;;;;;;;;4990965;28;20200;-46
2024/03/24 13:56:58;;;;;;;231.38;76.18;;;;;;;;;;4986155;28;20252;-46
2024/03/24 13:59:24;;;;;;;231.57;78.97;;;;;;;;;;4991000;28;20704;-45
2024/03/24 14:01:50;;;;;;;227.53;72.57;;;;;;;;;;4991247;28;20959;-45